createdAt,value
2022-12-19T17:02:02.050Z,92.00
2022-12-19T17:03:37.484Z,88.60
2022-12-19T17:05:20.625Z,92.20
2022-12-19T17:06:52.807Z,82.00
2022-12-19T17:08:24.704Z,88.20
2022-12-19T17:09:56.380Z,92.80
2022-12-19T17:11:28.198Z,82.40
2022-12-19T17:12:59.927Z,89.00
2022-12-19T17:14:32.065Z,81.00
2022-12-19T17:16:04.182Z,74.75
2022-12-19T17:17:35.902Z,82.40
2022-12-19T17:19:10.237Z,92.50
2022-12-19T17:20:43.910Z,86.40
2022-12-19T17:22:16.464Z,80.25
2022-12-19T17:23:48.834Z,81.00
2022-12-19T17:25:27.150Z,81.00
2022-12-19T17:26:58.957Z,84.50
2022-12-19T17:28:30.652Z,89.50
2022-12-19T17:30:02.441Z,91.50
2022-12-19T17:31:38.075Z,84.50
2022-12-19T17:33:14.047Z,87.75
2022-12-19T17:34:45.729Z,97.50
2022-12-19T17:36:21.374Z,85.00
2022-12-19T17:37:56.895Z,84.00
2022-12-19T17:39:30.101Z,77.25
2022-12-19T17:41:01.952Z,62.50
2022-12-19T17:42:37.463Z,84.00
2022-12-19T17:44:09.444Z,80.00
2022-12-19T17:45:41.258Z,79.50
2022-12-19T17:47:14.893Z,86.75
2022-12-19T17:48:50.252Z,93.00
2022-12-19T17:50:26.880Z,83.75
2022-12-19T17:51:59.144Z,89.50
2022-12-19T17:53:30.860Z,76.50
2022-12-19T17:55:18.009Z,84.75
2022-12-19T17:56:50.368Z,85.00
2022-12-19T17:58:22.152Z,82.00
2022-12-19T17:59:53.889Z,82.25
2022-12-19T18:01:25.696Z,70.00
2022-12-19T18:02:57.789Z,82.00
2022-12-19T18:04:29.714Z,74.75
2022-12-19T18:06:02.567Z,79.75
2022-12-19T18:07:36.654Z,84.75
2022-12-19T18:09:18.235Z,83.00
2022-12-19T18:10:50.036Z,73.00
2022-12-19T18:12:21.742Z,59.00
2022-12-19T18:13:53.574Z,80.00
2022-12-19T18:15:25.383Z,90.00
2022-12-19T18:16:57.448Z,71.75
2022-12-19T18:18:30.997Z,82.25
2022-12-19T18:20:03.307Z,95.75
2022-12-19T18:21:35.017Z,81.75
2022-12-19T18:23:10.371Z,80.50
2022-12-19T18:24:42.205Z,80.75
2022-12-19T18:26:13.991Z,199.33
2022-12-19T18:27:45.959Z,158.75
2022-12-19T18:29:17.639Z,181.25
2022-12-19T18:30:49.419Z,152.00
2022-12-19T18:32:21.095Z,128.25
2022-12-19T18:33:53.516Z,133.75
2022-12-19T18:35:38.309Z,127.00
2022-12-19T18:37:13.576Z,120.25
2022-12-19T18:38:45.331Z,123.75
2022-12-19T18:40:27.513Z,141.50
2022-12-19T18:42:01.295Z,129.25
2022-12-19T18:43:33.605Z,140.75
2022-12-19T18:45:05.879Z,149.25
2022-12-19T18:46:38.574Z,147.25
2022-12-19T18:48:26.533Z,150.75
2022-12-19T18:49:58.425Z,158.75
2022-12-19T18:51:30.289Z,156.00
2022-12-19T18:53:02.161Z,154.25
2022-12-19T18:54:34.015Z,166.00
2022-12-19T18:56:06.182Z,157.00
2022-12-19T18:57:37.923Z,184.00
2022-12-19T18:59:11.068Z,208.67
2022-12-19T19:00:42.815Z,214.00
2022-12-19T19:02:24.977Z,245.75
2022-12-19T19:03:57.360Z,237.75
2022-12-19T19:05:30.615Z,260.75
2022-12-19T19:07:02.411Z,272.50
2022-12-19T19:08:34.683Z,291.25
2022-12-19T19:10:29.167Z,264.50
2022-12-19T19:12:13.431Z,279.25
2022-12-19T19:13:45.105Z,295.25
2022-12-19T19:15:21.108Z,293.50
2022-12-19T19:16:52.823Z,300.75
2022-12-19T19:18:26.829Z,279.00
2022-12-19T19:19:58.701Z,298.50
2022-12-19T19:21:32.466Z,268.00
2022-12-19T19:23:05.985Z,296.50
2022-12-19T19:24:37.807Z,293.50
2022-12-19T19:26:09.502Z,272.50
2022-12-19T19:27:41.481Z,272.25
2022-12-19T19:29:18.931Z,253.25
2022-12-19T19:30:50.698Z,282.75
2022-12-19T19:32:22.427Z,270.00
2022-12-19T19:34:03.617Z,265.75
2022-12-19T19:35:35.309Z,256.25
2022-12-19T19:37:07.992Z,268.25
2022-12-19T19:38:40.740Z,259.25
2022-12-19T19:40:13.006Z,254.75
2022-12-19T19:41:44.686Z,249.75
2022-12-19T19:43:16.417Z,258.75
2022-12-19T19:44:48.051Z,264.00
2022-12-19T19:46:19.742Z,237.25
2022-12-19T19:47:51.426Z,248.25
2022-12-19T19:49:23.187Z,228.67
2022-12-19T19:50:54.846Z,218.67
2022-12-19T19:52:26.490Z,201.33
2022-12-19T19:53:58.266Z,213.00
2022-12-19T19:55:29.947Z,214.00
2022-12-19T19:57:01.678Z,204.33
2022-12-19T19:58:33.478Z,190.33
2022-12-19T20:00:05.708Z,190.00
2022-12-19T20:01:44.313Z,205.33
2022-12-19T20:03:22.286Z,196.00
2022-12-19T20:04:54.999Z,189.67
2022-12-19T20:06:26.702Z,184.00
2022-12-19T20:07:58.399Z,187.33
2022-12-19T20:09:30.157Z,182.00
2022-12-19T20:11:01.898Z,186.75
2022-12-19T20:12:33.717Z,175.00
2022-12-19T20:14:05.525Z,184.25
2022-12-19T20:15:37.539Z,182.33
2022-12-19T20:17:09.325Z,201.00
2022-12-19T20:18:41.318Z,205.00
2022-12-19T20:20:13.132Z,194.33
2022-12-19T20:21:45.258Z,199.33
2022-12-19T20:23:16.952Z,184.33
2022-12-19T20:24:48.595Z,196.33
2022-12-19T20:26:20.463Z,204.33
2022-12-19T20:27:52.194Z,208.33
2022-12-19T20:29:24.180Z,184.33
2022-12-19T20:30:56.097Z,200.00
2022-12-19T20:32:28.788Z,202.67
2022-12-19T20:34:00.593Z,180.00
2022-12-19T20:35:32.542Z,205.33
2022-12-19T20:37:05.764Z,206.33
2022-12-19T20:38:37.745Z,199.67
2022-12-19T20:40:10.292Z,193.33
2022-12-19T20:41:41.904Z,190.67
2022-12-19T20:43:13.616Z,196.00
2022-12-19T20:44:45.502Z,194.00
2022-12-19T20:46:18.354Z,182.00
2022-12-19T20:47:50.078Z,190.67
2022-12-19T20:49:23.078Z,182.67
2022-12-19T20:50:58.484Z,174.33
2022-12-19T20:52:30.292Z,184.00
2022-12-19T20:54:02.922Z,188.33
2022-12-19T20:55:35.160Z,200.67
2022-12-19T20:57:07.421Z,203.00
2022-12-19T20:58:39.566Z,189.33
2022-12-19T21:00:14.850Z,192.67
2022-12-19T21:01:46.591Z,174.33
2022-12-19T21:03:33.954Z,184.67
2022-12-19T21:05:06.258Z,187.67
2022-12-19T21:06:38.142Z,187.33
2022-12-19T21:08:11.526Z,182.00
2022-12-19T21:09:44.970Z,198.00
2022-12-19T21:11:16.671Z,175.00
2022-12-19T21:12:48.443Z,189.00
2022-12-19T21:14:20.177Z,175.75
2022-12-19T21:15:55.319Z,169.50
2022-12-19T21:17:27.095Z,187.25
2022-12-19T21:18:58.777Z,202.67
2022-12-19T21:20:34.288Z,206.00
2022-12-19T21:22:06.253Z,223.67
2022-12-19T21:23:37.927Z,224.33
2022-12-19T21:25:09.674Z,250.33
2022-12-19T21:26:41.470Z,251.25
2022-12-19T21:28:13.257Z,233.00
2022-12-19T21:29:45.419Z,262.75
2022-12-19T21:31:18.348Z,247.75
2022-12-19T21:32:50.139Z,270.50
2022-12-19T21:34:21.832Z,242.00
2022-12-19T21:35:53.482Z,243.25
2022-12-19T21:37:25.258Z,265.50
2022-12-19T21:38:58.248Z,268.25
2022-12-19T21:40:30.024Z,255.00
2022-12-19T21:42:01.788Z,256.50
2022-12-19T21:43:34.055Z,258.00
2022-12-19T21:45:06.151Z,247.50
2022-12-19T21:46:38.128Z,256.00
2022-12-19T21:48:09.907Z,236.25
2022-12-19T21:49:42.163Z,250.25
2022-12-19T21:51:14.104Z,237.25
2022-12-19T21:52:45.988Z,250.00
2022-12-19T21:54:18.449Z,255.25
2022-12-19T21:55:50.138Z,240.25
2022-12-19T21:57:21.832Z,242.00
2022-12-19T21:58:55.155Z,245.75
2022-12-19T22:00:26.982Z,223.33
2022-12-19T22:01:59.090Z,234.67
2022-12-19T22:03:30.985Z,235.00
2022-12-19T22:05:02.874Z,230.67
2022-12-19T22:06:35.414Z,227.67
2022-12-19T22:08:09.309Z,217.33
2022-12-19T22:09:40.950Z,200.33
2022-12-19T22:11:19.621Z,219.67
2022-12-19T22:12:51.415Z,210.67
2022-12-19T22:14:23.095Z,196.33
2022-12-19T22:16:01.732Z,213.00
2022-12-19T22:17:33.423Z,195.00
2022-12-19T22:19:05.619Z,198.33
2022-12-19T22:20:43.920Z,182.00
2022-12-19T22:22:15.695Z,179.00
2022-12-19T22:23:47.403Z,195.75
2022-12-19T22:25:19.086Z,183.25
2022-12-19T22:26:50.710Z,190.67
2022-12-19T22:28:22.396Z,201.67
2022-12-19T22:29:54.032Z,180.50
2022-12-19T22:31:29.017Z,193.75
2022-12-19T22:33:00.812Z,184.25
2022-12-19T22:34:32.557Z,165.50
2022-12-19T22:36:05.472Z,167.75
2022-12-19T22:37:37.251Z,175.75
2022-12-19T22:39:11.186Z,191.33
2022-12-19T22:40:42.850Z,189.67
2022-12-19T22:42:14.661Z,186.00
2022-12-19T22:43:46.604Z,197.00
2022-12-19T22:45:18.468Z,176.00
2022-12-19T22:46:51.732Z,212.67
2022-12-19T22:48:23.525Z,186.67
2022-12-19T22:49:55.265Z,186.67
2022-12-19T22:51:27.404Z,198.67
2022-12-19T22:52:59.151Z,192.67
2022-12-19T22:54:30.837Z,180.33
2022-12-19T22:56:07.404Z,198.67
2022-12-19T22:57:39.160Z,192.33
2022-12-19T22:59:11.451Z,197.67
2022-12-19T23:00:43.116Z,197.00
2022-12-19T23:02:14.902Z,192.67
2022-12-19T23:03:47.618Z,200.67
2022-12-19T23:05:19.546Z,180.00
2022-12-19T23:06:51.251Z,167.00
2022-12-19T23:08:23.057Z,184.75
2022-12-19T23:09:54.764Z,162.50
2022-12-19T23:11:32.070Z,164.75
2022-12-19T23:13:03.874Z,172.50
2022-12-19T23:14:35.584Z,171.00
2022-12-19T23:16:07.617Z,162.25
2022-12-19T23:17:39.427Z,170.75
2022-12-19T23:19:11.468Z,177.25
2022-12-19T23:20:43.223Z,168.50
2022-12-19T23:22:15.361Z,159.25
2022-12-19T23:23:49.537Z,146.25
2022-12-19T23:25:21.362Z,162.50
2022-12-19T23:26:53.100Z,161.50
2022-12-19T23:28:24.877Z,153.50
2022-12-19T23:29:56.568Z,145.25
2022-12-19T23:31:28.507Z,153.00
2022-12-19T23:33:00.947Z,146.00
2022-12-19T23:34:33.351Z,138.50
